createdAt,value
2023-07-03T00:01:27.425Z,24.15
2023-07-03T00:03:54.664Z,24.13
2023-07-03T00:06:21.856Z,24.12
2023-07-03T00:08:49.069Z,24.12
2023-07-03T00:11:16.347Z,24.09
2023-07-03T00:13:43.391Z,24.07
2023-07-03T00:16:10.593Z,24.01
2023-07-03T00:18:37.710Z,23.97
2023-07-03T00:21:05.200Z,23.98
2023-07-03T00:23:32.305Z,24.03
2023-07-03T00:25:59.420Z,24.06
2023-07-03T00:28:27.059Z,23.95
2023-07-03T00:30:54.136Z,23.86
2023-07-03T00:33:21.341Z,23.83
2023-07-03T00:35:48.944Z,23.81
2023-07-03T00:38:16.439Z,23.78
2023-07-03T00:40:43.562Z,23.78
2023-07-03T00:43:13.010Z,23.81
2023-07-03T00:45:40.273Z,23.82
2023-07-03T00:48:07.386Z,23.80
2023-07-03T00:50:36.120Z,23.83
2023-07-03T00:53:05.663Z,23.81
2023-07-03T00:55:33.295Z,23.78
2023-07-03T00:58:00.631Z,23.78
2023-07-03T01:00:34.973Z,23.69
2023-07-03T01:03:16.400Z,23.71
2023-07-03T01:05:48.627Z,23.70
2023-07-03T01:08:16.532Z,23.67
2023-07-03T01:10:45.134Z,23.61
2023-07-03T01:13:17.803Z,23.56
2023-07-03T01:15:46.560Z,23.55
2023-07-03T01:18:16.262Z,23.46
2023-07-03T01:20:51.104Z,23.41
2023-07-03T01:24:07.284Z,23.41
2023-07-03T01:26:35.763Z,23.41
2023-07-03T01:29:04.052Z,23.40
2023-07-03T01:31:33.128Z,23.40
2023-07-03T01:34:02.408Z,23.40
2023-07-03T01:36:34.778Z,23.43
2023-07-03T01:39:04.091Z,23.46
2023-07-03T01:41:32.189Z,23.45
2023-07-03T01:43:59.404Z,23.36
2023-07-03T01:46:26.497Z,23.37
2023-07-03T01:48:54.038Z,23.37
2023-07-03T01:51:40.187Z,23.38
2023-07-03T01:54:21.286Z,23.40
2023-07-03T01:56:52.029Z,23.42
2023-07-03T01:59:26.306Z,23.42
2023-07-03T02:02:07.173Z,23.42
2023-07-03T02:04:40.734Z,23.41
2023-07-03T02:07:10.756Z,23.38
2023-07-03T02:09:41.103Z,23.35
2023-07-03T02:12:11.220Z,23.35
2023-07-03T02:14:40.684Z,23.39
2023-07-03T02:17:09.383Z,23.42
2023-07-03T02:19:37.231Z,23.41
2023-07-03T02:22:05.124Z,23.46
2023-07-03T02:24:32.858Z,23.45
2023-07-03T02:27:00.796Z,23.39
2023-07-03T02:29:27.993Z,23.36
2023-07-03T02:31:55.058Z,23.37
2023-07-03T02:34:24.906Z,23.33
2023-07-03T02:36:52.042Z,23.35
2023-07-03T02:39:19.200Z,23.36
2023-07-03T02:41:46.362Z,23.33
2023-07-03T02:44:13.600Z,23.35
2023-07-03T02:46:43.340Z,23.37
2023-07-03T02:49:12.276Z,23.42
2023-07-03T02:51:42.573Z,23.42
2023-07-03T02:54:11.316Z,23.43
2023-07-03T02:56:39.743Z,23.40
2023-07-03T02:59:07.165Z,23.40
2023-07-03T03:01:37.601Z,23.38
2023-07-03T03:04:06.859Z,23.38
2023-07-03T03:06:34.609Z,23.34
2023-07-03T03:09:02.226Z,23.33
2023-07-03T03:11:32.381Z,23.31
2023-07-03T03:13:59.947Z,23.32
2023-07-03T03:16:27.750Z,23.33
2023-07-03T03:18:55.023Z,23.34
2023-07-03T03:21:22.571Z,23.35
2023-07-03T03:23:49.959Z,23.36
2023-07-03T03:26:17.199Z,23.37
2023-07-03T03:28:44.240Z,23.39
2023-07-03T03:31:11.433Z,23.38
2023-07-03T03:33:47.010Z,23.35
2023-07-03T03:36:14.301Z,23.33
2023-07-03T03:38:41.870Z,23.32
2023-07-03T03:41:09.511Z,23.36
2023-07-03T03:43:40.027Z,23.42
2023-07-03T03:46:07.338Z,23.43
2023-07-03T03:48:37.168Z,23.45
2023-07-03T03:51:07.407Z,23.44
2023-07-03T03:53:35.738Z,23.37
2023-07-03T03:56:02.883Z,23.37
2023-07-03T03:58:32.889Z,23.39
2023-07-03T04:01:00.201Z,23.42
2023-07-03T04:03:27.420Z,23.41
2023-07-03T04:05:54.837Z,23.43
2023-07-03T04:08:22.163Z,23.48
2023-07-03T04:10:49.236Z,23.53
2023-07-03T04:13:16.345Z,23.54
2023-07-03T04:16:00.692Z,23.57
2023-07-03T04:18:29.379Z,23.62
2023-07-03T04:20:56.546Z,23.64
2023-07-03T04:23:25.705Z,23.68
2023-07-03T04:25:54.062Z,23.72
2023-07-03T04:28:24.718Z,23.80
2023-07-03T04:30:51.919Z,23.84
2023-07-03T04:33:19.136Z,23.91
2023-07-03T04:35:48.285Z,23.99
2023-07-03T04:38:19.580Z,23.98
2023-07-03T04:40:47.418Z,24.02
2023-07-03T04:43:17.338Z,24.07
2023-07-03T04:45:53.906Z,24.19
2023-07-03T04:48:22.047Z,24.25
2023-07-03T04:50:50.296Z,24.27
2023-07-03T04:53:22.549Z,24.28
2023-07-03T04:55:51.702Z,24.28
2023-07-03T04:58:19.985Z,24.19
2023-07-03T05:00:48.498Z,24.24
2023-07-03T05:03:16.020Z,24.36
2023-07-03T05:05:43.255Z,24.50
2023-07-03T05:08:11.282Z,24.58
2023-07-03T05:10:38.367Z,24.66
2023-07-03T05:13:05.461Z,24.65
2023-07-03T05:15:32.796Z,24.71
2023-07-03T05:18:00.345Z,24.77
2023-07-03T05:20:27.642Z,24.78
2023-07-03T05:22:56.758Z,24.86
2023-07-03T05:25:24.000Z,24.87
2023-07-03T05:27:51.256Z,24.95
2023-07-03T05:30:18.587Z,25.03
2023-07-03T05:32:45.823Z,25.15
2023-07-03T05:35:13.255Z,25.27
2023-07-03T05:37:40.352Z,25.35
2023-07-03T05:40:08.597Z,25.45
2023-07-03T05:42:37.531Z,25.48
2023-07-03T05:45:05.927Z,25.43
2023-07-03T05:47:33.069Z,25.45
2023-07-03T05:50:00.443Z,25.52
2023-07-03T05:52:27.644Z,25.58
2023-07-03T05:54:54.794Z,25.72
2023-07-03T05:57:22.196Z,26.60
2023-07-03T05:59:50.388Z,27.57
2023-07-03T06:02:18.979Z,28.76
2023-07-03T06:04:47.107Z,29.75
2023-07-03T06:07:14.468Z,30.26
2023-07-03T06:09:42.756Z,30.84
2023-07-03T06:12:10.125Z,30.91
2023-07-03T06:14:37.365Z,31.01
2023-07-03T06:17:04.745Z,31.04
2023-07-03T06:19:32.074Z,30.80
2023-07-03T06:21:59.381Z,30.82
2023-07-03T06:24:26.855Z,30.75
2023-07-03T06:26:54.138Z,30.75
2023-07-03T06:29:21.511Z,30.69
2023-07-03T06:31:49.048Z,30.87
2023-07-03T06:34:16.401Z,30.77
2023-07-03T06:36:43.676Z,30.61
2023-07-03T06:39:11.351Z,30.46
2023-07-03T06:41:40.612Z,30.45
2023-07-03T06:44:12.637Z,30.63
2023-07-03T06:46:40.187Z,30.60
2023-07-03T06:49:07.304Z,30.37
2023-07-03T06:51:34.651Z,30.52
2023-07-03T06:54:01.898Z,30.63
2023-07-03T06:56:29.877Z,30.39
2023-07-03T06:58:57.138Z,29.76
2023-07-03T07:01:26.583Z,29.63
2023-07-03T07:03:53.736Z,29.28
2023-07-03T07:06:26.428Z,28.96
2023-07-03T07:08:53.936Z,28.71
2023-07-03T07:11:27.224Z,28.89
2023-07-03T07:13:56.732Z,29.01
2023-07-03T07:16:27.432Z,29.51
2023-07-03T07:18:57.418Z,29.50
2023-07-03T07:21:25.337Z,29.40
2023-07-03T07:23:57.682Z,29.37
2023-07-03T07:26:29.214Z,29.24
2023-07-03T07:28:56.280Z,29.05
2023-07-03T07:31:25.933Z,29.19
2023-07-03T07:33:53.469Z,29.47
2023-07-03T07:36:22.838Z,29.60
2023-07-03T07:38:51.382Z,29.56
2023-07-03T07:41:20.933Z,29.63
2023-07-03T07:43:49.419Z,29.72
2023-07-03T07:46:17.133Z,29.79
2023-07-03T07:48:46.797Z,29.97
2023-07-03T07:51:14.184Z,29.98
2023-07-03T07:53:41.986Z,30.09
2023-07-03T07:56:10.384Z,30.09
2023-07-03T07:58:38.080Z,29.97
2023-07-03T08:01:06.967Z,29.85
2023-07-03T08:06:36.567Z,30.10
2023-07-03T08:09:03.873Z,30.23
2023-07-03T08:11:31.060Z,29.97
2023-07-03T08:13:58.156Z,29.60
2023-07-03T08:16:25.344Z,29.91
2023-07-03T08:18:52.652Z,29.80
2023-07-03T08:21:19.960Z,29.88
2023-07-03T08:23:47.156Z,29.90
2023-07-03T08:26:20.499Z,29.89
2023-07-03T08:28:47.782Z,29.56
2023-07-03T08:31:14.978Z,29.85
2023-07-03T08:33:42.299Z,29.95
2023-07-03T08:38:39.932Z,30.26
2023-07-03T08:41:10.680Z,30.35
2023-07-03T08:43:42.426Z,30.53
2023-07-03T08:46:13.569Z,31.00
2023-07-03T08:48:43.254Z,30.59
2023-07-03T08:51:16.331Z,30.51
2023-07-03T08:53:49.201Z,30.90
2023-07-03T08:56:21.716Z,31.22
2023-07-03T08:58:53.049Z,31.35
2023-07-03T09:01:37.074Z,31.01
2023-07-03T09:04:26.586Z,30.41
2023-07-03T09:07:03.982Z,30.09
2023-07-03T09:09:43.043Z,29.97
2023-07-03T09:12:17.222Z,29.73
2023-07-03T09:14:52.205Z,29.71
2023-07-03T09:17:20.438Z,29.53
2023-07-03T09:19:50.387Z,29.29
2023-07-03T09:22:35.638Z,29.12
2023-07-03T09:25:06.421Z,28.92
2023-07-03T09:27:33.448Z,28.85
2023-07-03T09:30:06.154Z,28.62
2023-07-03T09:32:34.508Z,28.66
2023-07-03T09:35:09.975Z,28.62
2023-07-03T09:37:42.657Z,28.36
2023-07-03T09:40:16.367Z,28.06
2023-07-03T09:42:44.035Z,28.25
2023-07-03T09:45:23.787Z,28.28
2023-07-03T09:47:59.816Z,28.15
2023-07-03T09:50:36.119Z,27.96
2023-07-03T09:53:09.193Z,27.88
2023-07-03T09:55:37.681Z,27.97
2023-07-03T09:58:27.350Z,28.19
2023-07-03T10:00:56.971Z,28.28
2023-07-03T10:03:33.096Z,28.14
2023-07-03T10:11:55.601Z,27.48
2023-07-03T10:14:35.481Z,27.37
2023-07-03T10:17:05.048Z,27.27
2023-07-03T10:19:36.009Z,27.13
2023-07-03T10:22:03.436Z,27.29
2023-07-03T10:24:33.428Z,27.15
2023-07-03T10:27:02.263Z,27.23
2023-07-03T10:29:38.928Z,27.19
2023-07-03T10:32:19.350Z,27.44
2023-07-03T10:34:54.545Z,27.71
2023-07-03T10:37:24.356Z,27.99
2023-07-03T10:40:01.485Z,28.25
2023-07-03T10:42:35.692Z,28.12
2023-07-03T10:45:16.007Z,28.21
2023-07-03T10:48:04.520Z,28.37
2023-07-03T10:50:45.360Z,28.26
2023-07-03T10:53:23.271Z,28.35
2023-07-03T10:56:03.289Z,28.39
2023-07-03T10:58:33.516Z,28.51
2023-07-03T11:01:22.476Z,28.46
2023-07-03T11:04:23.723Z,28.62
2023-07-03T11:07:06.354Z,28.51
2023-07-03T11:09:47.392Z,28.35
2023-07-03T11:12:23.921Z,28.54
2023-07-03T11:15:09.542Z,28.40
2023-07-03T11:23:55.453Z,28.06
2023-07-03T11:29:08.392Z,28.15
2023-07-03T11:31:40.605Z,27.79
2023-07-03T11:36:56.401Z,28.31
2023-07-03T11:44:48.529Z,28.37
2023-07-03T11:47:29.061Z,28.38
2023-07-03T11:50:01.769Z,28.73
2023-07-03T11:52:30.137Z,28.83
2023-07-03T11:55:07.957Z,28.87
2023-07-03T11:57:38.709Z,28.68
2023-07-03T12:00:19.828Z,28.13
2023-07-03T12:02:54.949Z,28.22
2023-07-03T12:05:44.053Z,28.33
2023-07-03T12:08:43.570Z,28.50
2023-07-03T12:11:14.182Z,28.66
2023-07-03T12:13:47.897Z,29.09
2023-07-03T12:16:18.013Z,29.11
2023-07-03T12:18:45.336Z,29.09
2023-07-03T12:21:13.612Z,29.01
2023-07-03T12:23:49.043Z,28.62
2023-07-03T12:26:18.397Z,28.43
2023-07-03T12:28:46.551Z,28.42
2023-07-03T12:31:16.837Z,28.71
2023-07-03T12:34:13.362Z,28.98
2023-07-03T12:36:44.705Z,28.89
2023-07-03T12:39:16.148Z,28.87
2023-07-03T12:41:43.550Z,28.90
2023-07-03T12:44:12.159Z,28.91
2023-07-03T12:46:42.285Z,28.77
2023-07-03T12:49:21.410Z,28.48
2023-07-03T12:51:54.701Z,28.45
2023-07-03T12:54:24.005Z,28.34
2023-07-03T12:56:53.495Z,28.28
2023-07-03T12:59:24.333Z,28.17
2023-07-03T13:01:54.510Z,28.07
2023-07-03T13:04:34.156Z,28.01
2023-07-03T13:07:04.001Z,27.93
2023-07-03T13:09:33.025Z,28.08
2023-07-03T13:12:00.261Z,27.92
2023-07-03T13:14:29.442Z,28.01
2023-07-03T13:17:02.476Z,28.06
2023-07-03T13:19:36.083Z,28.13
2023-07-03T13:22:11.140Z,28.15
2023-07-03T13:24:46.409Z,28.22
2023-07-03T13:27:25.647Z,27.88
2023-07-03T13:29:59.219Z,27.74
2023-07-03T13:32:26.791Z,27.69
2023-07-03T13:35:01.424Z,27.62
2023-07-03T13:37:32.585Z,27.65
2023-07-03T13:40:03.029Z,27.70
2023-07-03T13:42:31.662Z,27.86
2023-07-03T13:44:59.136Z,28.00
2023-07-03T13:47:28.998Z,28.02
2023-07-03T13:49:57.198Z,28.07
2023-07-03T13:52:24.490Z,28.05
2023-07-03T13:54:51.579Z,27.94
2023-07-03T13:57:18.672Z,27.97
2023-07-03T13:59:45.831Z,27.92
2023-07-03T14:02:12.958Z,27.80
2023-07-03T14:04:40.453Z,27.83
2023-07-03T14:07:07.565Z,27.77
2023-07-03T14:09:34.947Z,27.73
2023-07-03T14:12:02.086Z,27.86
2023-07-03T14:14:29.349Z,27.78
2023-07-03T14:16:56.516Z,27.77
2023-07-03T14:19:23.636Z,27.52
2023-07-03T14:21:51.606Z,27.54
2023-07-03T14:24:18.741Z,27.34
2023-07-03T14:26:46.047Z,27.16
2023-07-03T14:29:13.163Z,27.06
2023-07-03T14:31:40.524Z,27.00
2023-07-03T14:34:07.984Z,27.16
2023-07-03T14:36:35.084Z,27.28
2023-07-03T14:39:02.342Z,27.28
2023-07-03T14:41:29.516Z,27.36
2023-07-03T14:43:56.634Z,27.46
2023-07-03T14:46:23.872Z,27.63
2023-07-03T14:48:51.251Z,27.51
2023-07-03T14:51:18.647Z,27.44
2023-07-03T14:53:45.808Z,27.50
2023-07-03T14:56:13.175Z,27.59
2023-07-03T14:58:40.298Z,27.65
2023-07-03T15:01:07.567Z,27.57
2023-07-03T15:03:34.965Z,27.43
2023-07-03T15:06:07.457Z,27.34
2023-07-03T15:08:34.537Z,27.21
2023-07-03T15:11:01.612Z,27.25
2023-07-03T15:13:28.764Z,27.15
2023-07-03T15:15:56.215Z,26.88
2023-07-03T15:18:24.905Z,26.71
2023-07-03T15:20:52.099Z,26.65
2023-07-03T15:23:19.716Z,26.59
2023-07-03T15:25:46.753Z,26.64
2023-07-03T15:28:14.184Z,26.78
2023-07-03T15:30:42.544Z,26.70
2023-07-03T15:33:09.824Z,26.75
2023-07-03T15:35:37.096Z,26.65
2023-07-03T15:38:04.298Z,26.53
2023-07-03T15:40:31.572Z,26.42
2023-07-03T15:42:58.712Z,26.38
2023-07-03T15:45:26.575Z,26.35
2023-07-03T15:47:54.302Z,26.38
2023-07-03T15:50:21.614Z,26.42
2023-07-03T15:52:49.402Z,26.48
2023-07-03T15:55:18.977Z,26.55
2023-07-03T15:57:46.196Z,26.62
2023-07-03T16:00:14.088Z,26.65
2023-07-03T16:02:41.362Z,26.69
2023-07-03T16:05:09.207Z,26.67
2023-07-03T16:07:36.959Z,26.60
2023-07-03T16:10:05.052Z,26.51
2023-07-03T16:12:32.109Z,26.43
2023-07-03T16:14:59.367Z,26.38
2023-07-03T16:17:26.658Z,26.36
2023-07-03T16:20:09.725Z,26.24
2023-07-03T16:22:38.404Z,26.15
2023-07-03T16:25:07.841Z,26.17
2023-07-03T16:27:36.055Z,26.25
2023-07-03T16:30:03.369Z,26.24
2023-07-03T16:32:31.108Z,26.30
2023-07-03T16:34:58.254Z,26.33
2023-07-03T16:37:25.498Z,26.31
2023-07-03T16:39:52.713Z,26.24
2023-07-03T16:42:20.096Z,26.24
2023-07-03T16:44:47.389Z,26.19
2023-07-03T16:47:14.661Z,26.20
2023-07-03T16:49:41.787Z,26.19
2023-07-03T16:52:08.932Z,26.23
2023-07-03T16:54:36.198Z,26.27
2023-07-03T16:57:04.222Z,26.28
2023-07-03T16:59:31.423Z,26.31
2023-07-03T17:01:58.693Z,26.26
2023-07-03T17:04:26.072Z,26.31
2023-07-03T17:06:53.270Z,26.33
2023-07-03T17:09:21.681Z,26.28
2023-07-03T17:11:49.116Z,26.27
2023-07-03T17:14:18.081Z,26.26
2023-07-03T17:16:45.744Z,26.26
2023-07-03T17:19:13.001Z,26.26
2023-07-03T17:21:40.196Z,26.17
2023-07-03T17:24:08.039Z,26.19
2023-07-03T17:26:35.281Z,26.17
2023-07-03T17:29:04.918Z,26.16
2023-07-03T17:31:32.422Z,26.13
2023-07-03T17:33:59.898Z,26.10
2023-07-03T17:36:27.157Z,26.08
2023-07-03T17:38:54.403Z,26.12
2023-07-03T17:41:22.117Z,26.15
2023-07-03T17:43:49.167Z,26.16
2023-07-03T17:46:19.643Z,26.18
2023-07-03T17:48:47.337Z,26.23
2023-07-03T17:51:15.218Z,26.25
2023-07-03T17:53:42.889Z,26.24
2023-07-03T17:56:10.134Z,26.28
2023-07-03T17:58:37.269Z,26.32
2023-07-03T18:01:10.922Z,26.31
2023-07-03T18:03:39.258Z,26.37
2023-07-03T18:06:09.161Z,26.36
2023-07-03T18:08:36.943Z,26.37
2023-07-03T18:11:04.471Z,26.38
2023-07-03T18:13:32.090Z,26.35
2023-07-03T18:15:59.704Z,26.33
2023-07-03T18:18:27.160Z,26.31
2023-07-03T18:20:54.316Z,26.29
2023-07-03T18:23:21.580Z,26.31
2023-07-03T18:25:48.836Z,26.25
2023-07-03T18:28:16.096Z,26.26
2023-07-03T18:30:43.287Z,26.25
2023-07-03T18:33:10.430Z,26.28
2023-07-03T18:35:40.751Z,26.24
2023-07-03T18:38:07.962Z,26.27
2023-07-03T18:40:35.073Z,26.26
2023-07-03T18:43:02.590Z,26.24
2023-07-03T18:45:29.630Z,26.18
2023-07-03T18:47:57.835Z,26.17
2023-07-03T18:50:24.893Z,26.14
2023-07-03T18:52:52.095Z,26.13
2023-07-03T18:55:25.082Z,26.09
2023-07-03T18:57:52.163Z,26.09
2023-07-03T19:00:19.348Z,26.08
2023-07-03T19:02:46.717Z,26.04
2023-07-03T19:05:14.498Z,25.99
2023-07-03T19:07:41.702Z,25.94
2023-07-03T19:10:17.868Z,25.93
2023-07-03T19:12:47.008Z,25.90
2023-07-03T19:15:14.522Z,25.89
2023-07-03T19:17:41.877Z,25.85
2023-07-03T19:20:11.545Z,25.82
2023-07-03T19:22:39.235Z,25.81
2023-07-03T19:25:07.709Z,25.81
2023-07-03T19:27:35.241Z,25.78
2023-07-03T19:30:02.596Z,25.80
2023-07-03T19:32:30.032Z,25.76
2023-07-03T19:34:57.570Z,25.80
2023-07-03T19:37:25.643Z,25.79
2023-07-03T19:39:53.102Z,25.77
2023-07-03T19:42:20.258Z,25.71
2023-07-03T19:44:47.725Z,25.70
2023-07-03T19:47:15.122Z,25.67
2023-07-03T19:49:42.700Z,25.66
2023-07-03T19:52:12.079Z,25.59
2023-07-03T19:54:39.589Z,25.58
2023-07-03T19:57:07.105Z,25.55
2023-07-03T19:59:35.058Z,25.50
2023-07-03T20:02:03.259Z,25.53
2023-07-03T20:04:31.647Z,25.50
2023-07-03T20:07:00.755Z,25.49
2023-07-03T20:09:29.126Z,25.45
2023-07-03T20:11:56.659Z,25.46
2023-07-03T20:14:24.156Z,25.45
2023-07-03T20:16:51.687Z,25.44
2023-07-03T20:19:20.624Z,25.40
2023-07-03T20:21:49.124Z,25.41
2023-07-03T20:24:16.503Z,25.42
2023-07-03T20:26:43.948Z,25.39
2023-07-03T20:29:11.392Z,25.39
2023-07-03T20:31:38.726Z,25.35
2023-07-03T20:34:05.936Z,25.35
2023-07-03T20:36:35.393Z,25.35
2023-07-03T20:39:06.086Z,25.40
2023-07-03T20:41:33.437Z,25.39
2023-07-03T20:44:06.209Z,25.40
2023-07-03T20:46:33.447Z,25.40
2023-07-03T20:49:01.284Z,25.37
2023-07-03T20:51:33.761Z,25.35
2023-07-03T20:54:04.466Z,25.35
2023-07-03T20:56:38.217Z,25.34
2023-07-03T20:59:07.241Z,25.38
2023-07-03T21:01:37.129Z,25.41
2023-07-03T21:04:07.344Z,25.38
2023-07-03T21:06:37.173Z,25.35
2023-07-03T21:09:05.425Z,25.33
2023-07-03T21:11:34.929Z,25.34
2023-07-03T21:14:05.807Z,25.31
2023-07-03T21:16:34.861Z,25.27
2023-07-03T21:19:02.839Z,25.28
2023-07-03T21:21:32.685Z,25.24
2023-07-03T21:24:02.492Z,25.25
2023-07-03T21:26:30.925Z,25.27
2023-07-03T21:28:58.516Z,25.23
2023-07-03T21:31:31.249Z,25.20
2023-07-03T21:33:58.600Z,25.18
2023-07-03T21:36:29.512Z,25.19
2023-07-03T21:38:58.637Z,25.17
2023-07-03T21:41:31.097Z,25.17
2023-07-03T21:44:00.479Z,25.13
2023-07-03T21:46:29.712Z,25.13
2023-07-03T21:48:57.381Z,25.11
2023-07-03T21:51:27.422Z,25.13
2023-07-03T21:53:57.602Z,25.18
2023-07-03T21:56:31.359Z,25.19
2023-07-03T21:59:04.425Z,25.18
2023-07-03T22:01:38.724Z,25.19
2023-07-03T22:04:07.754Z,25.19
2023-07-03T22:06:35.224Z,25.18
2023-07-03T22:09:02.468Z,25.20
2023-07-03T22:11:30.662Z,25.20
2023-07-03T22:13:58.343Z,25.19
2023-07-03T22:16:26.365Z,25.19
2023-07-03T22:18:53.877Z,25.19
2023-07-03T22:21:22.098Z,25.18
2023-07-03T22:23:50.876Z,25.20
2023-07-03T22:26:19.339Z,25.21
2023-07-03T22:28:47.131Z,25.21
2023-07-03T22:31:14.481Z,25.26
2023-07-03T22:33:42.992Z,25.30
2023-07-03T22:36:11.311Z,25.31
2023-07-03T22:38:38.534Z,25.28
2023-07-03T22:41:07.952Z,25.27
2023-07-03T22:43:35.105Z,25.27
2023-07-03T22:46:04.348Z,25.23
2023-07-03T22:48:33.325Z,25.18
2023-07-03T22:51:02.687Z,25.16
2023-07-03T22:53:30.253Z,25.19
2023-07-03T22:55:57.508Z,25.17
2023-07-03T22:58:24.629Z,25.15
2023-07-03T23:00:51.873Z,25.12
2023-07-03T23:03:19.072Z,25.10
2023-07-03T23:05:53.075Z,25.12
2023-07-03T23:08:25.430Z,25.10
2023-07-03T23:10:56.352Z,25.09
2023-07-03T23:13:25.029Z,25.07
2023-07-03T23:16:06.836Z,25.03
2023-07-03T23:18:38.625Z,25.03
2023-07-03T23:21:10.841Z,25.00
2023-07-03T23:23:38.891Z,24.98
2023-07-03T23:26:12.351Z,24.99
2023-07-03T23:28:43.265Z,24.99
2023-07-03T23:31:16.232Z,24.98
2023-07-03T23:33:49.554Z,25.00
2023-07-03T23:36:21.686Z,25.00
2023-07-03T23:38:49.781Z,24.98
2023-07-03T23:41:17.118Z,25.00
2023-07-03T23:43:44.516Z,24.98
2023-07-03T23:46:15.388Z,24.99
2023-07-03T23:48:42.603Z,24.99
2023-07-03T23:51:11.319Z,24.98
2023-07-03T23:53:41.503Z,24.97
2023-07-03T23:56:17.221Z,24.98
2023-07-03T23:58:46.855Z,24.97
